sensor_id;sensor_type;location;lat;lon;timestamp;temperature;humidity
11454;DHT22;5783;55.174;61.310;2023-03-01T00:02:14;17.20;28.80
11454;DHT22;5783;55.174;61.310;2023-03-01T00:04:43;17.20;28.70
11454;DHT22;5783;55.174;61.310;2023-03-01T00:07:12;17.20;28.90
11454;DHT22;5783;55.174;61.310;2023-03-01T00:09:41;17.20;28.80
11454;DHT22;5783;55.174;61.310;2023-03-01T00:12:12;17.20;28.70
11454;DHT22;5783;55.174;61.310;2023-03-01T00:14:41;17.20;28.70
11454;DHT22;5783;55.174;61.310;2023-03-01T00:17:10;17.20;28.70
11454;DHT22;5783;55.174;61.310;2023-03-01T00:19:40;17.10;28.70
11454;DHT22;5783;55.174;61.310;2023-03-01T00:22:09;17.10;28.70
11454;DHT22;5783;55.174;61.310;2023-03-01T00:24:38;17.20;28.60
11454;DHT22;5783;55.174;61.310;2023-03-01T00:27:07;17.20;28.70
11454;DHT22;5783;55.174;61.310;2023-03-01T00:29:36;17.20;28.70
11454;DHT22;5783;55.174;61.310;2023-03-01T00:32:05;17.20;28.80
11454;DHT22;5783;55.174;61.310;2023-03-01T00:34:34;17.20;28.70
11454;DHT22;5783;55.174;61.310;2023-03-01T00:37:03;17.20;28.70
11454;DHT22;5783;55.174;61.310;2023-03-01T00:39:33;17.20;28.70
11454;DHT22;5783;55.174;61.310;2023-03-01T00:42:02;17.10;28.70
11454;DHT22;5783;55.174;61.310;2023-03-01T00:44:31;17.00;28.70
11454;DHT22;5783;55.174;61.310;2023-03-01T00:47:01;17.00;29.20
11454;DHT22;5783;55.174;61.310;2023-03-01T00:49:30;17.10;28.90
11454;DHT22;5783;55.174;61.310;2023-03-01T00:51:59;17.00;28.90
11454;DHT22;5783;55.174;61.310;2023-03-01T00:54:29;17.00;28.90
11454;DHT22;5783;55.174;61.310;2023-03-01T00:56:58;17.00;28.90
11454;DHT22;5783;55.174;61.310;2023-03-01T00:59:27;17.00;29.00
11454;DHT22;5783;55.174;61.310;2023-03-01T01:01:56;17.00;28.90
11454;DHT22;5783;55.174;61.310;2023-03-01T01:04:25;17.00;29.00
11454;DHT22;5783;55.174;61.310;2023-03-01T01:06:54;17.00;29.00
11454;DHT22;5783;55.174;61.310;2023-03-01T01:09:24;17.00;28.70
11454;DHT22;5783;55.174;61.310;2023-03-01T01:11:53;17.00;29.00
11454;DHT22;5783;55.174;61.310;2023-03-01T01:14:22;17.10;28.60
11454;DHT22;5783;55.174;61.310;2023-03-01T01:16:51;16.90;28.90
11454;DHT22;5783;55.174;61.310;2023-03-01T01:19:20;16.90;28.60
11454;DHT22;5783;55.174;61.310;2023-03-01T01:21:49;17.00;28.50
11454;DHT22;5783;55.174;61.310;2023-03-01T01:24:19;17.00;28.90
11454;DHT22;5783;55.174;61.310;2023-03-01T01:26:49;17.00;29.20
11454;DHT22;5783;55.174;61.310;2023-03-01T01:29:18;17.00;28.90
11454;DHT22;5783;55.174;61.310;2023-03-01T01:31:47;17.00;28.90
11454;DHT22;5783;55.174;61.310;2023-03-01T01:34:18;17.00;28.90
11454;DHT22;5783;55.174;61.310;2023-03-01T01:36:50;17.00;29.00
11454;DHT22;5783;55.174;61.310;2023-03-01T01:39:22;17.00;28.90
11454;DHT22;5783;55.174;61.310;2023-03-01T01:41:51;17.00;28.90
11454;DHT22;5783;55.174;61.310;2023-03-01T01:44:23;17.00;28.90
11454;DHT22;5783;55.174;61.310;2023-03-01T01:50:03;17.00;28.80
11454;DHT22;5783;55.174;61.310;2023-03-01T01:52:34;17.00;28.90
11454;DHT22;5783;55.174;61.310;2023-03-01T01:55:25;17.00;28.90
11454;DHT22;5783;55.174;61.310;2023-03-01T01:57:57;16.90;28.90
11454;DHT22;5783;55.174;61.310;2023-03-01T02:00:28;17.00;29.00
11454;DHT22;5783;55.174;61.310;2023-03-01T02:03:00;17.00;29.00
11454;DHT22;5783;55.174;61.310;2023-03-01T02:08:40;17.00;29.00
11454;DHT22;5783;55.174;61.310;2023-03-01T02:11:11;17.00;28.60
11454;DHT22;5783;55.174;61.310;2023-03-01T02:13:43;16.90;29.00
11454;DHT22;5783;55.174;61.310;2023-03-01T02:16:15;17.00;28.90
11454;DHT22;5783;55.174;61.310;2023-03-01T02:18:44;17.00;28.80
11454;DHT22;5783;55.174;61.310;2023-03-01T02:27:14;17.00;28.50
11454;DHT22;5783;55.174;61.310;2023-03-01T02:29:48;17.00;28.40
11454;DHT22;5783;55.174;61.310;2023-03-01T02:32:18;17.00;28.40
11454;DHT22;5783;55.174;61.310;2023-03-01T02:34:51;16.90;28.50
11454;DHT22;5783;55.174;61.310;2023-03-01T02:37:21;17.00;28.40
11454;DHT22;5783;55.174;61.310;2023-03-01T02:40:13;17.00;28.80
11454;DHT22;5783;55.174;61.310;2023-03-01T02:43:03;17.00;28.40
11454;DHT22;5783;55.174;61.310;2023-03-01T02:45:34;17.00;28.90
11454;DHT22;5783;55.174;61.310;2023-03-01T02:48:04;17.00;28.90
11454;DHT22;5783;55.174;61.310;2023-03-01T02:56:32;17.00;28.80
11454;DHT22;5783;55.174;61.310;2023-03-01T02:59:01;16.90;29.00
11454;DHT22;5783;55.174;61.310;2023-03-01T03:01:30;16.90;29.00
11454;DHT22;5783;55.174;61.310;2023-03-01T03:04:19;17.00;29.10
11454;DHT22;5783;55.174;61.310;2023-03-01T03:06:50;16.90;29.00
11454;DHT22;5783;55.174;61.310;2023-03-01T03:09:19;16.90;28.90
11454;DHT22;5783;55.174;61.310;2023-03-01T03:11:50;17.00;29.00
11454;DHT22;5783;55.174;61.310;2023-03-01T03:14:19;17.00;29.00
11454;DHT22;5783;55.174;61.310;2023-03-01T03:16:49;17.00;28.80
11454;DHT22;5783;55.174;61.310;2023-03-01T03:19:19;17.00;28.80
11454;DHT22;5783;55.174;61.310;2023-03-01T03:21:48;17.00;28.70
11454;DHT22;5783;55.174;61.310;2023-03-01T03:24:17;17.00;28.70
11454;DHT22;5783;55.174;61.310;2023-03-01T03:26:47;17.10;28.70
11454;DHT22;5783;55.174;61.310;2023-03-01T03:29:16;17.10;28.70
11454;DHT22;5783;55.174;61.310;2023-03-01T03:31:45;17.10;28.70
11454;DHT22;5783;55.174;61.310;2023-03-01T03:34:15;17.10;28.70
11454;DHT22;5783;55.174;61.310;2023-03-01T03:36:44;17.10;28.70
11454;DHT22;5783;55.174;61.310;2023-03-01T03:39:13;17.00;28.60
11454;DHT22;5783;55.174;61.310;2023-03-01T03:41:42;17.10;28.70
11454;DHT22;5783;55.174;61.310;2023-03-01T03:44:12;17.10;28.80
11454;DHT22;5783;55.174;61.310;2023-03-01T03:46:41;17.10;28.80
11454;DHT22;5783;55.174;61.310;2023-03-01T03:49:10;17.10;28.80
11454;DHT22;5783;55.174;61.310;2023-03-01T03:51:39;17.10;28.70
11454;DHT22;5783;55.174;61.310;2023-03-01T03:54:08;17.10;28.80
11454;DHT22;5783;55.174;61.310;2023-03-01T03:56:38;17.10;28.70
11454;DHT22;5783;55.174;61.310;2023-03-01T03:59:07;17.10;28.70
11454;DHT22;5783;55.174;61.310;2023-03-01T04:01:37;17.10;28.70
11454;DHT22;5783;55.174;61.310;2023-03-01T04:04:07;17.10;28.70
11454;DHT22;5783;55.174;61.310;2023-03-01T04:06:36;17.10;28.80
11454;DHT22;5783;55.174;61.310;2023-03-01T04:09:05;17.10;28.80
11454;DHT22;5783;55.174;61.310;2023-03-01T04:11:34;17.10;28.80
11454;DHT22;5783;55.174;61.310;2023-03-01T04:14:05;17.10;28.80
11454;DHT22;5783;55.174;61.310;2023-03-01T04:16:34;17.10;28.80
11454;DHT22;5783;55.174;61.310;2023-03-01T04:19:03;17.10;28.80
11454;DHT22;5783;55.174;61.310;2023-03-01T04:21:32;17.10;28.70
11454;DHT22;5783;55.174;61.310;2023-03-01T04:24:03;17.10;28.70
11454;DHT22;5783;55.174;61.310;2023-03-01T04:26:33;17.10;28.70
11454;DHT22;5783;55.174;61.310;2023-03-01T04:29:02;17.10;28.80
11454;DHT22;5783;55.174;61.310;2023-03-01T04:31:31;17.00;28.60
11454;DHT22;5783;55.174;61.310;2023-03-01T04:34:01;17.00;28.70
11454;DHT22;5783;55.174;61.310;2023-03-01T04:36:30;16.90;28.80
11454;DHT22;5783;55.174;61.310;2023-03-01T04:39:01;16.90;28.90
11454;DHT22;5783;55.174;61.310;2023-03-01T04:41:31;16.90;28.90
11454;DHT22;5783;55.174;61.310;2023-03-01T04:44:01;16.90;28.80
11454;DHT22;5783;55.174;61.310;2023-03-01T04:46:31;16.90;28.60
11454;DHT22;5783;55.174;61.310;2023-03-01T04:49:00;16.80;28.80
11454;DHT22;5783;55.174;61.310;2023-03-01T04:51:29;16.80;28.90
11454;DHT22;5783;55.174;61.310;2023-03-01T04:54:00;16.80;28.80
11454;DHT22;5783;55.174;61.310;2023-03-01T04:59:24;17.00;28.60
11454;DHT22;5783;55.174;61.310;2023-03-01T05:04:27;17.20;28.40
11454;DHT22;5783;55.174;61.310;2023-03-01T05:06:56;17.30;27.80
11454;DHT22;5783;55.174;61.310;2023-03-01T05:09:25;17.20;27.30
11454;DHT22;5783;55.174;61.310;2023-03-01T05:11:54;17.10;27.40
11454;DHT22;5783;55.174;61.310;2023-03-01T05:14:23;17.00;27.60
11454;DHT22;5783;55.174;61.310;2023-03-01T05:16:54;17.00;27.50
11454;DHT22;5783;55.174;61.310;2023-03-01T05:19:25;17.10;27.60
11454;DHT22;5783;55.174;61.310;2023-03-01T05:21:54;17.10;27.30
11454;DHT22;5783;55.174;61.310;2023-03-01T05:24:43;17.20;27.20
11454;DHT22;5783;55.174;61.310;2023-03-01T05:27:13;17.30;27.00
11454;DHT22;5783;55.174;61.310;2023-03-01T05:29:42;17.40;26.90
11454;DHT22;5783;55.174;61.310;2023-03-01T05:32:11;17.30;26.80
11454;DHT22;5783;55.174;61.310;2023-03-01T05:34:42;17.20;26.60
11454;DHT22;5783;55.174;61.310;2023-03-01T05:37:13;17.20;27.10
11454;DHT22;5783;55.174;61.310;2023-03-01T05:39:42;17.30;26.90
11454;DHT22;5783;55.174;61.310;2023-03-01T05:42:11;17.40;26.90
11454;DHT22;5783;55.174;61.310;2023-03-01T05:44:40;17.50;26.70
11454;DHT22;5783;55.174;61.310;2023-03-01T05:47:10;17.50;26.60
11454;DHT22;5783;55.174;61.310;2023-03-01T05:49:39;17.60;26.60
11454;DHT22;5783;55.174;61.310;2023-03-01T05:52:08;17.50;26.60
11454;DHT22;5783;55.174;61.310;2023-03-01T05:54:37;17.50;26.50
11454;DHT22;5783;55.174;61.310;2023-03-01T05:57:06;17.70;26.70
11454;DHT22;5783;55.174;61.310;2023-03-01T05:59:36;17.90;26.90
11454;DHT22;5783;55.174;61.310;2023-03-01T06:02:05;17.90;26.20
11454;DHT22;5783;55.174;61.310;2023-03-01T06:04:35;17.90;26.20
11454;DHT22;5783;55.174;61.310;2023-03-01T06:07:04;18.00;26.30
11454;DHT22;5783;55.174;61.310;2023-03-01T06:09:33;18.10;26.20
11454;DHT22;5783;55.174;61.310;2023-03-01T06:12:02;18.30;26.10
11454;DHT22;5783;55.174;61.310;2023-03-01T06:14:31;18.30;25.90
11454;DHT22;5783;55.174;61.310;2023-03-01T06:17:00;18.20;26.10
11454;DHT22;5783;55.174;61.310;2023-03-01T06:19:30;18.20;26.40
11454;DHT22;5783;55.174;61.310;2023-03-01T06:22:00;18.20;26.50
11454;DHT22;5783;55.174;61.310;2023-03-01T06:24:29;18.10;26.60
11454;DHT22;5783;55.174;61.310;2023-03-01T06:26:59;18.10;26.50
11454;DHT22;5783;55.174;61.310;2023-03-01T06:32:19;18.30;26.40
11454;DHT22;5783;55.174;61.310;2023-03-01T06:34:50;18.40;26.30
11454;DHT22;5783;55.174;61.310;2023-03-01T06:37:19;18.40;26.30
11454;DHT22;5783;55.174;61.310;2023-03-01T06:39:48;18.40;26.50
11454;DHT22;5783;55.174;61.310;2023-03-01T06:42:17;18.50;26.50
11454;DHT22;5783;55.174;61.310;2023-03-01T06:44:49;18.50;26.40
11454;DHT22;5783;55.174;61.310;2023-03-01T06:47:18;18.40;26.30
11454;DHT22;5783;55.174;61.310;2023-03-01T06:49:47;18.40;26.50
11454;DHT22;5783;55.174;61.310;2023-03-01T06:52:16;18.40;26.70
11454;DHT22;5783;55.174;61.310;2023-03-01T06:54:45;18.30;28.10
11454;DHT22;5783;55.174;61.310;2023-03-01T06:57:34;18.40;28.30
11454;DHT22;5783;55.174;61.310;2023-03-01T07:00:04;18.40;28.80
11454;DHT22;5783;55.174;61.310;2023-03-01T07:02:34;18.40;29.80
11454;DHT22;5783;55.174;61.310;2023-03-01T07:05:04;18.40;34.90
11454;DHT22;5783;55.174;61.310;2023-03-01T07:07:33;18.40;30.80
11454;DHT22;5783;55.174;61.310;2023-03-01T07:10:02;18.40;30.50
11454;DHT22;5783;55.174;61.310;2023-03-01T07:12:32;18.50;30.90
11454;DHT22;5783;55.174;61.310;2023-03-01T07:15:01;18.50;31.00
11454;DHT22;5783;55.174;61.310;2023-03-01T07:17:31;18.50;31.70
11454;DHT22;5783;55.174;61.310;2023-03-01T07:20:00;18.50;32.10
11454;DHT22;5783;55.174;61.310;2023-03-01T07:22:31;18.50;31.80
11454;DHT22;5783;55.174;61.310;2023-03-01T07:25:00;18.50;30.80
11454;DHT22;5783;55.174;61.310;2023-03-01T07:27:31;18.40;31.50
11454;DHT22;5783;55.174;61.310;2023-03-01T07:30:00;18.30;31.20
11454;DHT22;5783;55.174;61.310;2023-03-01T07:32:31;18.20;31.30
11454;DHT22;5783;55.174;61.310;2023-03-01T07:35:00;18.10;32.00
11454;DHT22;5783;55.174;61.310;2023-03-01T07:37:31;18.00;30.90
11454;DHT22;5783;55.174;61.310;2023-03-01T07:40:00;17.90;31.10
11454;DHT22;5783;55.174;61.310;2023-03-01T07:42:31;17.90;31.00
11454;DHT22;5783;55.174;61.310;2023-03-01T07:45:00;17.90;31.20
11454;DHT22;5783;55.174;61.310;2023-03-01T07:47:31;18.10;30.50
11454;DHT22;5783;55.174;61.310;2023-03-01T07:50:00;18.00;30.40
11454;DHT22;5783;55.174;61.310;2023-03-01T07:52:31;18.20;45.00
11454;DHT22;5783;55.174;61.310;2023-03-01T07:55:00;18.50;53.60
11454;DHT22;5783;55.174;61.310;2023-03-01T07:57:31;18.10;30.10
11454;DHT22;5783;55.174;61.310;2023-03-01T08:00:00;18.00;30.20
11454;DHT22;5783;55.174;61.310;2023-03-01T08:02:30;17.60;30.30
11454;DHT22;5783;55.174;61.310;2023-03-01T08:04:59;17.70;40.80
11454;DHT22;5783;55.174;61.310;2023-03-01T08:07:28;17.70;30.30
11454;DHT22;5783;55.174;61.310;2023-03-01T08:09:58;17.70;30.40
11454;DHT22;5783;55.174;61.310;2023-03-01T08:12:31;17.70;30.30
11454;DHT22;5783;55.174;61.310;2023-03-01T08:15:03;17.70;30.40
11454;DHT22;5783;55.174;61.310;2023-03-01T08:17:56;17.70;30.00
11454;DHT22;5783;55.174;61.310;2023-03-01T08:23:15;17.20;32.70
11454;DHT22;5783;55.174;61.310;2023-03-01T08:29:13;17.70;30.30
11454;DHT22;5783;55.174;61.310;2023-03-01T08:31:31;17.60;30.40
11454;DHT22;5783;55.174;61.310;2023-03-01T08:36:52;17.70;30.80
11454;DHT22;5783;55.174;61.310;2023-03-01T08:39:21;17.70;30.60
11454;DHT22;5783;55.174;61.310;2023-03-01T08:41:50;17.70;30.40
11454;DHT22;5783;55.174;61.310;2023-03-01T08:44:19;17.70;29.90
11454;DHT22;5783;55.174;61.310;2023-03-01T08:46:49;17.60;30.00
11454;DHT22;5783;55.174;61.310;2023-03-01T08:49:21;17.50;30.00
11454;DHT22;5783;55.174;61.310;2023-03-01T08:51:50;17.40;30.10
11454;DHT22;5783;55.174;61.310;2023-03-01T08:54:21;17.50;30.40
11454;DHT22;5783;55.174;61.310;2023-03-01T08:56:51;17.70;48.40
11454;DHT22;5783;55.174;61.310;2023-03-01T08:59:20;17.40;30.00
11454;DHT22;5783;55.174;61.310;2023-03-01T09:01:49;17.20;30.40
11454;DHT22;5783;55.174;61.310;2023-03-01T09:04:19;17.20;30.20
11454;DHT22;5783;55.174;61.310;2023-03-01T09:06:48;17.20;30.00
11454;DHT22;5783;55.174;61.310;2023-03-01T09:09:17;17.20;30.00
11454;DHT22;5783;55.174;61.310;2023-03-01T09:11:47;17.10;30.00
11454;DHT22;5783;55.174;61.310;2023-03-01T09:14:17;17.20;29.80
11454;DHT22;5783;55.174;61.310;2023-03-01T09:16:46;17.20;30.00
11454;DHT22;5783;55.174;61.310;2023-03-01T09:19:15;17.30;30.10
11454;DHT22;5783;55.174;61.310;2023-03-01T09:21:44;17.80;40.80
11454;DHT22;5783;55.174;61.310;2023-03-01T09:24:33;17.50;30.00
11454;DHT22;5783;55.174;61.310;2023-03-01T09:27:02;17.60;29.90
11454;DHT22;5783;55.174;61.310;2023-03-01T09:29:33;17.50;29.90
11454;DHT22;5783;55.174;61.310;2023-03-01T09:32:02;17.60;29.80
11454;DHT22;5783;55.174;61.310;2023-03-01T09:34:32;17.70;29.70
11454;DHT22;5783;55.174;61.310;2023-03-01T09:37:02;17.70;29.50
11454;DHT22;5783;55.174;61.310;2023-03-01T09:39:31;17.60;29.50
11454;DHT22;5783;55.174;61.310;2023-03-01T09:42:02;17.70;29.70
11454;DHT22;5783;55.174;61.310;2023-03-01T09:44:54;17.80;29.60
11454;DHT22;5783;55.174;61.310;2023-03-01T09:47:26;17.80;30.00
11454;DHT22;5783;55.174;61.310;2023-03-01T10:01:59;18.00;29.50
11454;DHT22;5783;55.174;61.310;2023-03-01T10:04:47;18.00;29.40
11454;DHT22;5783;55.174;61.310;2023-03-01T10:10:46;18.10;29.30
11454;DHT22;5783;55.174;61.310;2023-03-01T10:16:46;18.00;29.10
11454;DHT22;5783;55.174;61.310;2023-03-01T10:25:17;18.10;39.00
11454;DHT22;5783;55.174;61.310;2023-03-01T10:28:10;17.60;38.50
11454;DHT22;5783;55.174;61.310;2023-03-01T10:30:38;17.90;39.10
11454;DHT22;5783;55.174;61.310;2023-03-01T10:33:31;18.10;29.00
11454;DHT22;5783;55.174;61.310;2023-03-01T10:36:00;18.10;29.40
11454;DHT22;5783;55.174;61.310;2023-03-01T10:38:33;18.00;29.30
11454;DHT22;5783;55.174;61.310;2023-03-01T10:41:21;17.60;29.10
11454;DHT22;5783;55.174;61.310;2023-03-01T10:44:33;17.60;29.50
11454;DHT22;5783;55.174;61.310;2023-03-01T10:46:45;17.60;29.90
11454;DHT22;5783;55.174;61.310;2023-03-01T10:49:17;17.60;29.80
11454;DHT22;5783;55.174;61.310;2023-03-01T10:51:49;17.70;29.80
11454;DHT22;5783;55.174;61.310;2023-03-01T10:54:39;17.90;29.70
11454;DHT22;5783;55.174;61.310;2023-03-01T10:57:10;18.00;29.60
11454;DHT22;5783;55.174;61.310;2023-03-01T10:59:40;18.10;29.50
11454;DHT22;5783;55.174;61.310;2023-03-01T11:07:45;18.20;29.30
11454;DHT22;5783;55.174;61.310;2023-03-01T11:10:38;18.20;29.30
11454;DHT22;5783;55.174;61.310;2023-03-01T11:12:37;18.20;29.30
11454;DHT22;5783;55.174;61.310;2023-03-01T11:15:15;18.20;29.30
11454;DHT22;5783;55.174;61.310;2023-03-01T11:17:40;18.30;29.10
11454;DHT22;5783;55.174;61.310;2023-03-01T11:25:56;18.20;29.10
11454;DHT22;5783;55.174;61.310;2023-03-01T11:28:28;18.20;29.10
11454;DHT22;5783;55.174;61.310;2023-03-01T11:45:32;18.30;29.20
11454;DHT22;5783;55.174;61.310;2023-03-01T11:51:13;18.30;29.10
11454;DHT22;5783;55.174;61.310;2023-03-01T12:03:28;18.00;29.00
11454;DHT22;5783;55.174;61.310;2023-03-01T12:05:46;17.90;29.30
11454;DHT22;5783;55.174;61.310;2023-03-01T12:33:41;17.40;30.00
11454;DHT22;5783;55.174;61.310;2023-03-01T12:54:51;16.80;30.60
11454;DHT22;5783;55.174;61.310;2023-03-01T12:57:42;16.80;30.70
11454;DHT22;5783;55.174;61.310;2023-03-01T13:15:39;16.70;30.30
11454;DHT22;5783;55.174;61.310;2023-03-01T13:27:50;16.40;30.70
11454;DHT22;5783;55.174;61.310;2023-03-01T13:29:53;16.40;31.10
11454;DHT22;5783;55.174;61.310;2023-03-01T13:32:43;16.50;31.30
11454;DHT22;5783;55.174;61.310;2023-03-01T13:41:11;16.40;31.00
11454;DHT22;5783;55.174;61.310;2023-03-01T13:43:42;16.20;46.70
11454;DHT22;5783;55.174;61.310;2023-03-01T13:49:02;16.00;37.00
11454;DHT22;5783;55.174;61.310;2023-03-01T13:51:32;15.90;46.10
11454;DHT22;5783;55.174;61.310;2023-03-01T13:54:01;15.90;31.40
11454;DHT22;5783;55.174;61.310;2023-03-01T13:56:51;15.60;54.10
11454;DHT22;5783;55.174;61.310;2023-03-01T13:59:22;15.50;59.10
11454;DHT22;5783;55.174;61.310;2023-03-01T14:02:12;16.00;31.30
11454;DHT22;5783;55.174;61.310;2023-03-01T14:04:42;16.20;31.60
11454;DHT22;5783;55.174;61.310;2023-03-01T14:07:16;16.20;32.00
11454;DHT22;5783;55.174;61.310;2023-03-01T14:09:45;15.30;30.70
11454;DHT22;5783;55.174;61.310;2023-03-01T14:12:52;16.20;31.00
11454;DHT22;5783;55.174;61.310;2023-03-01T14:20:47;16.10;31.00
11454;DHT22;5783;55.174;61.310;2023-03-01T14:23:21;16.60;47.20
11454;DHT22;5783;55.174;61.310;2023-03-01T14:28:42;16.50;30.00
11454;DHT22;5783;55.174;61.310;2023-03-01T14:31:32;16.60;29.90
11454;DHT22;5783;55.174;61.310;2023-03-01T14:34:02;16.60;30.30
11454;DHT22;5783;55.174;61.310;2023-03-01T14:36:33;16.70;30.30
11454;DHT22;5783;55.174;61.310;2023-03-01T14:39:15;16.70;30.00
11454;DHT22;5783;55.174;61.310;2023-03-01T14:41:35;16.70;30.50
11454;DHT22;5783;55.174;61.310;2023-03-01T14:44:24;16.70;31.20
11454;DHT22;5783;55.174;61.310;2023-03-01T14:46:56;16.70;31.90
11454;DHT22;5783;55.174;61.310;2023-03-01T14:49:29;16.70;31.90
11454;DHT22;5783;55.174;61.310;2023-03-01T14:52:50;16.70;32.00
11454;DHT22;5783;55.174;61.310;2023-03-01T14:54:51;16.50;31.80
11454;DHT22;5783;55.174;61.310;2023-03-01T14:57:24;16.60;32.40
11454;DHT22;5783;55.174;61.310;2023-03-01T14:59:55;16.50;32.10
11454;DHT22;5783;55.174;61.310;2023-03-01T15:02:28;16.40;31.80
11454;DHT22;5783;55.174;61.310;2023-03-01T15:05:00;16.20;31.80
11454;DHT22;5783;55.174;61.310;2023-03-01T15:08:11;15.90;31.80
11454;DHT22;5783;55.174;61.310;2023-03-01T15:10:07;16.00;32.40
11454;DHT22;5783;55.174;61.310;2023-03-01T15:12:39;15.90;32.60
11454;DHT22;5783;55.174;61.310;2023-03-01T15:16:03;15.80;32.70
11454;DHT22;5783;55.174;61.310;2023-03-01T15:18:02;15.70;32.60
11454;DHT22;5783;55.174;61.310;2023-03-01T15:20:33;15.60;32.70
11454;DHT22;5783;55.174;61.310;2023-03-01T15:23:03;15.60;32.30
11454;DHT22;5783;55.174;61.310;2023-03-01T15:25:34;15.50;51.40
11454;DHT22;5783;55.174;61.310;2023-03-01T15:28:04;15.50;34.00
11454;DHT22;5783;55.174;61.310;2023-03-01T15:30:35;15.50;32.30
11454;DHT22;5783;55.174;61.310;2023-03-01T15:35:57;15.70;58.90
11454;DHT22;5783;55.174;61.310;2023-03-01T15:41:45;15.40;32.90
11454;DHT22;5783;55.174;61.310;2023-03-01T15:44:28;15.40;32.90
11454;DHT22;5783;55.174;61.310;2023-03-01T15:46:58;15.40;32.70
11454;DHT22;5783;55.174;61.310;2023-03-01T15:53:12;15.40;34.40
11454;DHT22;5783;55.174;61.310;2023-03-01T15:55:29;15.40;34.30
11454;DHT22;5783;55.174;61.310;2023-03-01T15:58:20;15.30;33.80
11454;DHT22;5783;55.174;61.310;2023-03-01T16:00:50;15.30;34.20
11454;DHT22;5783;55.174;61.310;2023-03-01T16:03:22;15.30;34.20
11454;DHT22;5783;55.174;61.310;2023-03-01T16:05:51;15.30;34.20
11454;DHT22;5783;55.174;61.310;2023-03-01T16:08:21;15.30;34.20
11454;DHT22;5783;55.174;61.310;2023-03-01T16:10:50;15.20;33.90
11454;DHT22;5783;55.174;61.310;2023-03-01T16:13:21;15.30;34.30
11454;DHT22;5783;55.174;61.310;2023-03-01T16:15:51;15.30;34.40
11454;DHT22;5783;55.174;61.310;2023-03-01T16:18:20;15.30;34.30
11454;DHT22;5783;55.174;61.310;2023-03-01T16:20:49;15.20;40.70
11454;DHT22;5783;55.174;61.310;2023-03-01T16:23:20;14.90;49.00
11454;DHT22;5783;55.174;61.310;2023-03-01T16:25:51;15.30;34.30
11454;DHT22;5783;55.174;61.310;2023-03-01T16:28:22;15.30;34.20
11454;DHT22;5783;55.174;61.310;2023-03-01T16:30:52;15.40;41.40
11454;DHT22;5783;55.174;61.310;2023-03-01T16:33:22;15.20;50.30
11454;DHT22;5783;55.174;61.310;2023-03-01T16:35:51;15.70;52.20
11454;DHT22;5783;55.174;61.310;2023-03-01T16:38:20;15.30;51.20
11454;DHT22;5783;55.174;61.310;2023-03-01T16:40:51;15.00;51.50
11454;DHT22;5783;55.174;61.310;2023-03-01T16:43:21;15.20;56.30
11454;DHT22;5783;55.174;61.310;2023-03-01T16:48:38;15.10;53.80
11454;DHT22;5783;55.174;61.310;2023-03-01T16:51:08;15.10;49.40
11454;DHT22;5783;55.174;61.310;2023-03-01T16:53:38;15.30;33.60
11454;DHT22;5783;55.174;61.310;2023-03-01T16:58:38;15.40;36.30
11454;DHT22;5783;55.174;61.310;2023-03-01T17:01:11;15.40;32.80
11454;DHT22;5783;55.174;61.310;2023-03-01T17:03:41;15.40;33.40
11454;DHT22;5783;55.174;61.310;2023-03-01T17:08:43;15.40;33.30
11454;DHT22;5783;55.174;61.310;2023-03-01T17:11:15;15.40;33.10
11454;DHT22;5783;55.174;61.310;2023-03-01T17:13:44;15.60;35.50
11454;DHT22;5783;55.174;61.310;2023-03-01T17:16:16;15.40;33.10
11454;DHT22;5783;55.174;61.310;2023-03-01T17:18:46;15.70;44.40
11454;DHT22;5783;55.174;61.310;2023-03-01T17:21:16;15.40;33.10
11454;DHT22;5783;55.174;61.310;2023-03-01T17:23:46;15.40;33.00
11454;DHT22;5783;55.174;61.310;2023-03-01T17:26:16;15.50;32.90
11454;DHT22;5783;55.174;61.310;2023-03-01T17:28:45;15.50;32.90
11454;DHT22;5783;55.174;61.310;2023-03-01T17:31:34;15.50;32.70
11454;DHT22;5783;55.174;61.310;2023-03-01T17:34:03;15.50;32.70
11454;DHT22;5783;55.174;61.310;2023-03-01T17:36:33;15.50;32.60
11454;DHT22;5783;55.174;61.310;2023-03-01T17:39:04;15.50;32.30
11454;DHT22;5783;55.174;61.310;2023-03-01T17:41:33;15.50;32.30
11454;DHT22;5783;55.174;61.310;2023-03-01T17:44:02;15.50;41.80
11454;DHT22;5783;55.174;61.310;2023-03-01T17:46:32;15.60;48.00
11454;DHT22;5783;55.174;61.310;2023-03-01T17:49:01;15.40;32.40
11454;DHT22;5783;55.174;61.310;2023-03-01T17:51:30;15.40;32.10
11454;DHT22;5783;55.174;61.310;2023-03-01T17:53:59;15.50;40.80
11454;DHT22;5783;55.174;61.310;2023-03-01T17:56:28;15.60;48.30
11454;DHT22;5783;55.174;61.310;2023-03-01T17:59:17;15.30;46.10
11454;DHT22;5783;55.174;61.310;2023-03-01T18:01:46;15.10;54.90
11454;DHT22;5783;55.174;61.310;2023-03-01T18:04:16;15.10;44.90
11454;DHT22;5783;55.174;61.310;2023-03-01T18:06:45;15.30;32.00
11454;DHT22;5783;55.174;61.310;2023-03-01T18:09:14;15.50;42.20
11454;DHT22;5783;55.174;61.310;2023-03-01T18:11:43;15.20;45.90
11454;DHT22;5783;55.174;61.310;2023-03-01T18:16:41;15.30;48.60
11454;DHT22;5783;55.174;61.310;2023-03-01T18:19:11;15.40;49.00
11454;DHT22;5783;55.174;61.310;2023-03-01T18:21:40;15.00;55.30
11454;DHT22;5783;55.174;61.310;2023-03-01T18:24:10;15.30;31.80
11454;DHT22;5783;55.174;61.310;2023-03-01T18:26:39;15.30;31.80
11454;DHT22;5783;55.174;61.310;2023-03-01T18:29:08;15.30;32.00
11454;DHT22;5783;55.174;61.310;2023-03-01T18:31:37;15.30;31.70
11454;DHT22;5783;55.174;61.310;2023-03-01T18:34:08;15.10;45.90
11454;DHT22;5783;55.174;61.310;2023-03-01T18:36:37;15.30;31.40
11454;DHT22;5783;55.174;61.310;2023-03-01T18:39:07;15.30;32.00
11454;DHT22;5783;55.174;61.310;2023-03-01T18:41:36;15.30;32.10
11454;DHT22;5783;55.174;61.310;2023-03-01T18:44:06;15.40;43.40
11454;DHT22;5783;55.174;61.310;2023-03-01T18:46:35;15.30;43.80
11454;DHT22;5783;55.174;61.310;2023-03-01T18:49:06;15.40;31.40
11454;DHT22;5783;55.174;61.310;2023-03-01T18:51:36;15.40;31.70
11454;DHT22;5783;55.174;61.310;2023-03-01T18:56:54;15.40;31.10
11454;DHT22;5783;55.174;61.310;2023-03-01T18:59:43;15.40;31.60
11454;DHT22;5783;55.174;61.310;2023-03-01T19:02:12;15.30;31.70
11454;DHT22;5783;55.174;61.310;2023-03-01T19:04:41;15.40;31.40
11454;DHT22;5783;55.174;61.310;2023-03-01T19:07:11;15.30;31.70
11454;DHT22;5783;55.174;61.310;2023-03-01T19:09:40;15.40;31.50
11454;DHT22;5783;55.174;61.310;2023-03-01T19:12:29;15.40;31.60
11454;DHT22;5783;55.174;61.310;2023-03-01T19:14:58;15.40;31.50
11454;DHT22;5783;55.174;61.310;2023-03-01T19:17:27;15.40;31.60
11454;DHT22;5783;55.174;61.310;2023-03-01T19:19:57;15.50;31.50
11454;DHT22;5783;55.174;61.310;2023-03-01T19:22:27;15.40;31.50
11454;DHT22;5783;55.174;61.310;2023-03-01T19:25:00;15.40;31.60